createdAt,value
2023-04-02T00:01:18.262Z,2.48
2023-04-02T00:04:10.076Z,2.47
2023-04-02T00:06:44.702Z,2.53
2023-04-02T00:09:26.158Z,2.40
2023-04-02T00:11:57.361Z,2.50
2023-04-02T00:14:27.179Z,2.48
2023-04-02T00:16:56.790Z,2.46
2023-04-02T00:19:32.265Z,2.56
2023-04-02T00:22:01.212Z,2.51
2023-04-02T00:24:29.502Z,2.55
2023-04-02T00:26:57.953Z,2.48
2023-04-02T00:29:25.865Z,2.55
2023-04-02T00:31:54.912Z,2.46
2023-04-02T00:34:25.140Z,2.49
2023-04-02T00:36:55.257Z,2.48
2023-04-02T00:39:26.046Z,2.48
2023-04-02T00:42:05.122Z,2.51
2023-04-02T00:44:34.184Z,2.44
2023-04-02T00:47:05.693Z,2.54
2023-04-02T00:49:37.492Z,2.51
2023-04-02T00:52:08.517Z,2.56
2023-04-02T00:54:40.579Z,2.62
2023-04-02T00:57:16.231Z,2.62
2023-04-02T00:59:50.108Z,2.62
2023-04-02T01:02:26.596Z,2.59
2023-04-02T01:04:55.745Z,2.68
2023-04-02T01:07:44.948Z,2.65
2023-04-02T01:10:25.410Z,2.71
2023-04-02T01:13:07.542Z,2.80
2023-04-02T01:17:01.030Z,2.74
2023-04-02T01:19:54.726Z,2.74
2023-04-02T01:22:24.316Z,2.75
2023-04-02T01:24:58.115Z,2.86
2023-04-02T01:27:29.379Z,2.81
2023-04-02T01:29:59.493Z,2.83
2023-04-02T01:32:29.868Z,2.86
2023-04-02T01:34:58.438Z,2.75
2023-04-02T01:37:36.765Z,2.89
2023-04-02T01:40:14.486Z,2.98
2023-04-02T01:42:49.177Z,2.95
2023-04-02T01:45:21.836Z,2.99
2023-04-02T01:47:51.356Z,3.02
2023-04-02T01:50:31.596Z,2.95
2023-04-02T01:53:01.780Z,2.93
2023-04-02T01:55:35.925Z,2.99
2023-04-02T01:58:05.704Z,2.98
2023-04-02T02:00:37.482Z,3.02
2023-04-02T02:03:06.596Z,3.01
2023-04-02T02:05:34.959Z,2.97
2023-04-02T02:08:03.511Z,2.92
2023-04-02T02:10:38.355Z,3.02
2023-04-02T02:13:09.162Z,2.99
2023-04-02T02:15:41.882Z,3.05
2023-04-02T02:18:11.868Z,3.01
2023-04-02T02:20:44.021Z,3.06
2023-04-02T02:23:13.790Z,3.01
2023-04-02T02:25:41.968Z,3.04
2023-04-02T02:28:11.898Z,2.98
2023-04-02T02:30:45.720Z,3.08
2023-04-02T02:33:18.026Z,3.13
2023-04-02T02:35:51.926Z,3.05
2023-04-02T02:38:30.476Z,3.09
2023-04-02T02:41:07.560Z,2.97
2023-04-02T02:43:37.017Z,3.03
2023-04-02T02:46:07.310Z,3.05
2023-04-02T02:48:38.287Z,2.99
2023-04-02T02:51:09.798Z,3.08
2023-04-02T02:53:47.453Z,3.03
2023-04-02T02:56:15.558Z,3.10
2023-04-02T02:58:45.054Z,3.11
2023-04-02T03:01:24.886Z,3.08
2023-04-02T03:03:56.087Z,3.03
2023-04-02T03:06:26.027Z,3.12
2023-04-02T03:09:05.056Z,3.12
2023-04-02T03:11:38.618Z,3.08
2023-04-02T03:14:17.159Z,3.13
2023-04-02T03:16:48.946Z,3.17
2023-04-02T03:19:24.868Z,3.11
2023-04-02T03:21:56.488Z,3.14
2023-04-02T03:24:32.478Z,3.08
2023-04-02T03:27:04.728Z,3.14
2023-04-02T03:29:34.190Z,3.17
2023-04-02T03:32:06.676Z,3.18
2023-04-02T03:34:37.323Z,3.16
2023-04-02T03:37:11.418Z,3.20
2023-04-02T03:39:43.516Z,3.15
2023-04-02T03:42:16.074Z,3.21
2023-04-02T03:44:47.338Z,3.20
2023-04-02T03:47:20.613Z,3.22
2023-04-02T03:49:51.396Z,3.16
2023-04-02T03:52:24.247Z,3.28
2023-04-02T03:54:53.747Z,3.19
2023-04-02T03:57:26.759Z,3.22
2023-04-02T04:00:00.468Z,3.26
2023-04-02T04:02:40.006Z,3.24
2023-04-02T04:05:21.144Z,3.17
2023-04-02T04:07:52.112Z,3.14
2023-04-02T04:10:23.892Z,3.24
2023-04-02T04:12:53.311Z,3.29
2023-04-02T04:15:27.121Z,3.18
2023-04-02T04:18:03.273Z,3.28
2023-04-02T04:20:37.879Z,3.28
2023-04-02T04:23:25.832Z,3.26
2023-04-02T04:25:59.197Z,3.24
2023-04-02T04:28:31.869Z,3.28
2023-04-02T04:31:06.864Z,3.24
2023-04-02T04:33:40.602Z,3.24
2023-04-02T04:36:21.633Z,3.32
2023-04-02T04:38:55.327Z,3.32
2023-04-02T04:41:26.778Z,3.26
2023-04-02T04:43:59.983Z,3.22
2023-04-02T04:46:29.916Z,3.24
2023-04-02T04:49:03.754Z,3.29
2023-04-02T04:51:38.000Z,3.27
2023-04-02T04:54:06.249Z,3.30
2023-04-02T04:56:35.893Z,3.32
2023-04-02T04:59:16.936Z,3.31
2023-04-02T05:01:48.958Z,3.31
2023-04-02T05:04:22.794Z,3.25
2023-04-02T05:06:54.216Z,3.34
2023-04-02T05:09:26.355Z,3.43
2023-04-02T05:12:00.960Z,3.35
2023-04-02T05:14:34.360Z,3.39
2023-04-02T05:17:05.909Z,3.41
2023-04-02T05:19:38.472Z,3.41
2023-04-02T05:22:15.846Z,3.37
2023-04-02T05:25:02.379Z,3.28
2023-04-02T05:27:37.675Z,3.28
2023-04-02T05:30:14.502Z,3.40
2023-04-02T05:32:45.439Z,3.30
2023-04-02T05:35:20.562Z,3.38
2023-04-02T05:37:49.272Z,3.43
2023-04-02T05:40:23.008Z,3.44
2023-04-02T05:42:52.917Z,3.49
2023-04-02T05:45:27.062Z,3.52
2023-04-02T05:48:01.936Z,3.65
2023-04-02T05:50:43.080Z,3.65
2023-04-02T05:53:20.991Z,3.53
2023-04-02T05:55:54.651Z,3.64
2023-04-02T05:58:36.238Z,3.74
2023-04-02T06:01:22.257Z,3.54
2023-04-02T06:03:57.260Z,3.65
2023-04-02T06:06:42.608Z,3.66
2023-04-02T06:09:15.337Z,3.57
2023-04-02T06:11:46.951Z,3.74
2023-04-02T06:14:19.476Z,3.72
2023-04-02T06:16:49.236Z,3.72
2023-04-02T06:19:21.701Z,3.75
2023-04-02T06:21:52.418Z,3.85
2023-04-02T06:24:25.443Z,3.95
2023-04-02T06:26:57.686Z,3.90
2023-04-02T06:29:29.952Z,3.93
2023-04-02T06:32:02.407Z,4.14
2023-04-02T06:34:32.053Z,4.23
2023-04-02T06:37:18.474Z,4.11
2023-04-02T06:39:47.864Z,4.22
2023-04-02T06:42:22.919Z,4.08
2023-04-02T06:45:07.211Z,4.23
2023-04-02T06:48:04.217Z,4.07
2023-04-02T06:50:48.617Z,3.91
2023-04-02T06:53:23.765Z,3.98
2023-04-02T06:55:55.683Z,4.07
2023-04-02T06:58:27.909Z,4.03
2023-04-02T07:00:56.332Z,4.22
2023-04-02T07:03:41.084Z,4.23
2023-04-02T07:06:28.030Z,4.10
2023-04-02T07:09:01.141Z,4.15
2023-04-02T07:11:29.148Z,4.12
2023-04-02T07:14:01.425Z,4.18
2023-04-02T07:16:33.060Z,3.94
2023-04-02T07:19:04.317Z,3.85
2023-04-02T07:21:35.248Z,3.80
2023-04-02T07:24:04.822Z,3.88
2023-04-02T07:26:34.529Z,3.83
2023-04-02T07:29:02.463Z,3.77
2023-04-02T07:31:30.988Z,3.64
2023-04-02T07:34:00.695Z,3.78
2023-04-02T07:36:30.178Z,3.93
2023-04-02T07:38:58.109Z,3.91
2023-04-02T07:41:27.731Z,4.10
2023-04-02T07:43:55.645Z,4.06
2023-04-02T07:46:23.629Z,4.18
2023-04-02T07:48:51.787Z,4.24
2023-04-02T07:51:21.170Z,4.31
2023-04-02T07:53:51.171Z,4.33
2023-04-02T07:56:21.978Z,4.40
2023-04-02T07:58:51.499Z,4.50
2023-04-02T08:01:21.300Z,4.50
2023-04-02T08:03:50.034Z,4.60
2023-04-02T08:06:19.432Z,4.49
2023-04-02T08:08:47.366Z,4.65
2023-04-02T08:11:15.316Z,5.06
2023-04-02T08:13:43.539Z,5.26
2023-04-02T08:16:12.829Z,5.24
2023-04-02T08:18:40.806Z,5.25
2023-04-02T08:21:10.501Z,5.33
2023-04-02T08:23:39.428Z,5.22
2023-04-02T08:26:08.378Z,5.11
2023-04-02T08:28:36.575Z,5.12
2023-04-02T08:31:05.467Z,5.44
2023-04-02T08:33:38.045Z,5.55
2023-04-02T08:36:07.760Z,5.90
2023-04-02T08:38:35.766Z,6.01
2023-04-02T08:41:04.128Z,5.90
2023-04-02T08:43:47.797Z,5.85
2023-04-02T08:46:20.387Z,5.58
2023-04-02T08:48:52.940Z,5.57
2023-04-02T08:51:24.640Z,5.52
2023-04-02T08:53:54.525Z,5.68
2023-04-02T08:56:28.813Z,5.78
2023-04-02T08:58:59.260Z,5.85
2023-04-02T09:01:37.324Z,6.04
2023-04-02T09:04:15.387Z,5.59
2023-04-02T09:06:44.016Z,5.64
2023-04-02T09:09:12.797Z,5.81
2023-04-02T09:11:47.564Z,5.63
2023-04-02T09:14:18.882Z,5.52
2023-04-02T09:16:49.693Z,5.34
2023-04-02T09:19:21.875Z,5.29
2023-04-02T09:22:00.000Z,5.32
2023-04-02T09:24:28.046Z,5.71
2023-04-02T09:26:55.974Z,5.95
2023-04-02T09:29:44.631Z,5.70
2023-04-02T09:32:47.360Z,6.03
2023-04-02T09:35:25.335Z,6.31
2023-04-02T09:38:16.538Z,6.90
2023-04-02T09:40:48.670Z,6.53
2023-04-02T09:43:21.114Z,6.14
2023-04-02T09:46:00.144Z,6.41
2023-04-02T09:48:32.030Z,6.43
2023-04-02T09:51:28.652Z,6.61
2023-04-02T09:54:08.795Z,6.75
2023-04-02T09:56:38.996Z,6.47
2023-04-02T09:59:16.359Z,6.90
2023-04-02T10:01:47.815Z,6.87
2023-04-02T10:04:37.817Z,7.12
2023-04-02T10:07:08.010Z,7.57
2023-04-02T10:09:38.546Z,8.01
2023-04-02T10:12:08.940Z,7.54
2023-04-02T10:14:39.780Z,7.12
2023-04-02T10:17:12.415Z,7.09
2023-04-02T10:19:42.826Z,6.88
2023-04-02T10:22:15.244Z,6.86
2023-04-02T10:24:43.918Z,7.36
2023-04-02T10:27:22.664Z,6.72
2023-04-02T10:30:06.611Z,7.04
2023-04-02T10:32:39.251Z,7.34
2023-04-02T10:35:16.352Z,7.24
2023-04-02T10:38:11.228Z,6.72
2023-04-02T10:40:41.498Z,7.04
2023-04-02T10:43:36.350Z,7.34
2023-04-02T10:46:09.116Z,7.22
2023-04-02T10:48:43.689Z,7.77
2023-04-02T10:51:18.482Z,8.36
2023-04-02T10:53:54.807Z,8.51
2023-04-02T10:56:24.042Z,8.67
2023-04-02T10:58:57.526Z,8.39
2023-04-02T11:01:28.733Z,8.75
2023-04-02T11:04:00.253Z,9.40
2023-04-02T11:06:32.602Z,9.44
2023-04-02T11:09:06.596Z,9.44
2023-04-02T11:11:37.534Z,8.47
2023-04-02T11:14:13.448Z,9.08
2023-04-02T11:16:44.591Z,9.38
2023-04-02T11:19:30.609Z,9.81
2023-04-02T11:22:02.472Z,9.44
2023-04-02T11:24:38.402Z,10.53
2023-04-02T11:27:23.864Z,10.28
2023-04-02T11:29:54.530Z,9.87
2023-04-02T11:32:42.520Z,8.94
2023-04-02T11:35:27.674Z,8.93
2023-04-02T11:37:56.937Z,9.65
2023-04-02T11:40:48.252Z,9.83
2023-04-02T11:43:48.549Z,9.48
2023-04-02T11:46:46.800Z,8.12
2023-04-02T11:49:42.160Z,7.84
2023-04-02T11:52:22.573Z,8.91
2023-04-02T11:55:01.830Z,8.91
2023-04-02T11:57:42.040Z,8.23
2023-04-02T12:00:22.778Z,8.42
2023-04-02T12:03:04.495Z,9.44
2023-04-02T12:05:36.787Z,8.75
2023-04-02T12:08:18.963Z,8.50
2023-04-02T12:10:58.137Z,9.19
2023-04-02T12:13:50.881Z,8.66
2023-04-02T12:16:19.019Z,8.58
2023-04-02T12:18:48.446Z,8.99
2023-04-02T12:21:17.730Z,7.85
2023-04-02T12:23:47.178Z,7.74
2023-04-02T12:26:38.312Z,7.34
2023-04-02T12:29:17.935Z,7.17
2023-04-02T12:31:46.449Z,8.41
2023-04-02T12:34:16.625Z,9.57
2023-04-02T12:36:54.008Z,9.65
2023-04-02T12:39:22.158Z,9.00
2023-04-02T12:41:50.064Z,8.47
2023-04-02T12:44:21.772Z,8.07
2023-04-02T12:46:50.644Z,8.24
2023-04-02T12:49:27.074Z,7.83
2023-04-02T12:51:56.011Z,7.42
2023-04-02T12:54:24.137Z,7.71
2023-04-02T12:56:54.096Z,7.41
2023-04-02T12:59:34.746Z,7.21
2023-04-02T13:02:05.659Z,7.20
2023-04-02T13:04:33.641Z,8.15
2023-04-02T13:07:02.143Z,9.74
2023-04-02T13:09:35.080Z,8.65
2023-04-02T13:12:03.043Z,8.79
2023-04-02T13:14:32.536Z,8.97
2023-04-02T13:17:00.430Z,8.53
2023-04-02T13:19:30.825Z,6.92
2023-04-02T13:22:00.203Z,7.54
2023-04-02T13:24:29.315Z,8.35
2023-04-02T13:26:58.547Z,9.23
2023-04-02T13:29:28.386Z,8.71
2023-04-02T13:32:00.544Z,9.32
2023-04-02T13:34:28.737Z,10.14
2023-04-02T13:36:57.452Z,9.21
2023-04-02T13:39:25.450Z,8.43
2023-04-02T13:41:56.896Z,8.97
2023-04-02T13:44:26.190Z,9.47
2023-04-02T13:46:54.987Z,9.32
2023-04-02T13:49:24.611Z,8.87
2023-04-02T13:51:54.258Z,9.06
2023-04-02T13:54:26.118Z,10.08
2023-04-02T13:56:54.209Z,9.66
2023-04-02T13:59:23.289Z,9.12
2023-04-02T14:01:53.003Z,9.14
2023-04-02T14:04:26.081Z,7.86
2023-04-02T14:07:17.592Z,8.30
2023-04-02T14:09:56.456Z,8.76
2023-04-02T14:12:34.628Z,9.87
2023-04-02T14:15:16.877Z,9.66
2023-04-02T14:17:55.143Z,7.85
2023-04-02T14:20:33.421Z,7.54
2023-04-02T14:23:10.349Z,7.72
2023-04-02T14:25:44.211Z,9.36
2023-04-02T14:28:20.578Z,9.20
2023-04-02T14:30:55.652Z,9.64
2023-04-02T14:33:30.477Z,8.90
2023-04-02T14:36:11.418Z,8.08
2023-04-02T14:38:43.401Z,6.82
2023-04-02T14:41:15.191Z,6.85
2023-04-02T14:43:46.915Z,8.05
2023-04-02T14:46:14.981Z,8.53
2023-04-02T14:48:47.595Z,9.47
2023-04-02T14:51:23.403Z,9.58
2023-04-02T14:53:59.265Z,8.40
2023-04-02T14:56:27.732Z,7.24
2023-04-02T14:59:03.606Z,8.11
2023-04-02T15:01:36.389Z,9.72
2023-04-02T15:04:08.321Z,9.72
2023-04-02T15:06:39.694Z,8.52
2023-04-02T15:09:13.273Z,7.67
2023-04-02T15:11:49.965Z,8.01
2023-04-02T15:14:21.349Z,8.22
2023-04-02T15:16:49.324Z,8.71
2023-04-02T15:19:18.911Z,9.07
2023-04-02T15:22:16.944Z,9.46
2023-04-02T15:24:53.849Z,8.33
2023-04-02T15:27:44.170Z,7.18
2023-04-02T15:30:15.568Z,7.87
2023-04-02T15:32:44.387Z,8.85
2023-04-02T15:35:32.715Z,8.99
2023-04-02T15:38:06.709Z,8.09
2023-04-02T15:40:52.813Z,7.74
2023-04-02T15:43:24.488Z,7.40
2023-04-02T15:45:59.251Z,8.22
2023-04-02T15:49:06.670Z,7.23
2023-04-02T15:51:42.687Z,6.63
2023-04-02T15:54:21.750Z,6.46
2023-04-02T15:56:53.823Z,6.65
2023-04-02T15:59:50.984Z,6.77
2023-04-02T16:02:34.122Z,7.25
2023-04-02T16:05:04.899Z,7.20
2023-04-02T16:08:09.137Z,7.51
2023-04-02T16:10:43.042Z,7.04
2023-04-02T16:13:32.414Z,7.14
2023-04-02T16:16:05.788Z,7.02
2023-04-02T16:18:46.392Z,7.34
2023-04-02T16:21:17.543Z,7.48
2023-04-02T16:23:45.756Z,7.84
2023-04-02T16:26:35.054Z,7.99
2023-04-02T16:29:13.499Z,7.91
2023-04-02T16:31:49.573Z,7.91
2023-04-02T16:34:24.674Z,8.24
2023-04-02T16:36:58.523Z,8.55
2023-04-02T16:39:35.909Z,8.36
2023-04-02T16:42:11.518Z,8.50
2023-04-02T16:44:47.583Z,8.11
2023-04-02T16:47:31.045Z,7.67
2023-04-02T16:50:05.686Z,7.68
2023-04-02T16:52:41.822Z,7.43
2023-04-02T16:55:27.184Z,7.05
2023-04-02T16:58:05.632Z,7.20
2023-04-02T17:00:39.833Z,6.82
2023-04-02T17:03:20.674Z,6.70
2023-04-02T17:05:54.438Z,6.09
2023-04-02T17:08:24.434Z,5.57
2023-04-02T17:10:53.506Z,5.52
2023-04-02T17:13:29.886Z,5.24
2023-04-02T17:16:06.069Z,5.09
2023-04-02T17:18:34.426Z,5.00
2023-04-02T17:21:04.959Z,4.97
2023-04-02T17:23:43.094Z,4.92
2023-04-02T17:26:18.401Z,4.77
2023-04-02T17:28:49.089Z,4.60
2023-04-02T17:31:21.323Z,4.56
2023-04-02T17:33:49.595Z,4.59
2023-04-02T17:36:35.419Z,4.36
2023-04-02T17:39:12.751Z,4.32
2023-04-02T17:41:49.082Z,4.19
2023-04-02T17:44:45.643Z,4.28
2023-04-02T17:47:18.922Z,4.15
2023-04-02T17:49:52.517Z,4.06
2023-04-02T17:52:23.204Z,4.02
2023-04-02T17:54:57.771Z,3.86
2023-04-02T17:57:41.207Z,3.90
2023-04-02T18:00:24.201Z,3.85
2023-04-02T18:03:11.720Z,3.90
2023-04-02T18:05:44.342Z,3.77
2023-04-02T18:08:18.836Z,3.66
2023-04-02T18:10:53.974Z,3.68
2023-04-02T18:13:32.049Z,3.57
2023-04-02T18:16:08.240Z,3.61
2023-04-02T18:18:50.652Z,3.50
2023-04-02T18:21:25.672Z,3.43
2023-04-02T18:24:07.356Z,3.36
2023-04-02T18:26:41.958Z,3.36
2023-04-02T18:29:16.746Z,3.38
2023-04-02T18:31:50.909Z,3.29
2023-04-02T18:34:49.781Z,3.22
2023-04-02T18:37:23.116Z,3.26
2023-04-02T18:40:03.970Z,3.13
2023-04-02T18:42:48.293Z,3.12
2023-04-02T18:45:23.042Z,3.06
2023-04-02T18:47:59.830Z,3.06
2023-04-02T18:50:31.468Z,2.97
2023-04-02T18:52:59.766Z,2.93
2023-04-02T18:55:29.825Z,2.81
2023-04-02T18:58:01.398Z,2.79
2023-04-02T19:00:32.246Z,2.75
2023-04-02T19:03:07.827Z,2.73
2023-04-02T19:05:44.515Z,2.75
2023-04-02T19:08:18.060Z,2.65
2023-04-02T19:10:47.836Z,2.67
2023-04-02T19:13:17.430Z,2.51
2023-04-02T19:15:59.332Z,2.52
2023-04-02T19:18:35.088Z,2.36
2023-04-02T19:21:15.176Z,2.27
2023-04-02T19:23:55.528Z,2.13
2023-04-02T19:26:28.670Z,1.96
2023-04-02T19:29:04.012Z,1.95
2023-04-02T19:31:42.381Z,1.89
2023-04-02T19:34:18.030Z,1.82
2023-04-02T19:36:49.388Z,1.78
2023-04-02T19:39:46.653Z,1.67
2023-04-02T19:42:22.472Z,1.77
2023-04-02T19:44:52.528Z,1.78
2023-04-02T19:47:21.487Z,1.68
2023-04-02T19:49:50.964Z,1.68
2023-04-02T19:52:19.566Z,1.58
2023-04-02T19:54:47.672Z,1.47
2023-04-02T19:57:16.825Z,1.39
2023-04-02T19:59:44.810Z,1.41
2023-04-02T20:02:12.866Z,1.38
2023-04-02T20:04:40.932Z,1.28
2023-04-02T20:07:10.264Z,1.34
2023-04-02T20:09:38.282Z,1.27
2023-04-02T20:12:06.592Z,1.34
2023-04-02T20:14:34.633Z,1.37
2023-04-02T20:17:02.643Z,1.27
2023-04-02T20:19:30.893Z,1.27
2023-04-02T20:21:59.018Z,1.18
2023-04-02T20:24:28.436Z,1.15
2023-04-02T20:26:56.514Z,1.12
2023-04-02T20:29:27.853Z,1.07
2023-04-02T20:31:55.735Z,1.03
2023-04-02T20:34:23.739Z,1.11
2023-04-02T20:36:52.087Z,1.05
2023-04-02T20:39:21.387Z,0.92
2023-04-02T20:41:50.802Z,0.81
2023-04-02T20:44:18.806Z,0.74
2023-04-02T20:46:46.928Z,0.67
2023-04-02T20:49:14.898Z,0.58
2023-04-02T20:51:43.279Z,0.54
2023-04-02T20:54:11.439Z,0.54
2023-04-02T20:56:39.706Z,0.58
2023-04-02T20:59:08.941Z,0.60
2023-04-02T21:01:37.546Z,0.59
2023-04-02T21:04:05.836Z,0.54
2023-04-02T21:06:35.030Z,0.55
2023-04-02T21:09:03.796Z,0.67
2023-04-02T21:11:32.267Z,0.71
2023-04-02T21:14:00.353Z,0.78
2023-04-02T21:16:31.899Z,0.78
2023-04-02T21:19:02.160Z,0.77
2023-04-02T21:21:30.391Z,0.71
2023-04-02T21:24:00.367Z,0.71
2023-04-02T21:26:29.229Z,0.63
2023-04-02T21:28:57.482Z,0.51
2023-04-02T21:31:27.510Z,0.42
2023-04-02T21:33:57.891Z,0.38
2023-04-02T21:36:26.917Z,0.41
2023-04-02T21:38:56.425Z,0.33
2023-04-02T21:41:26.428Z,0.34
2023-04-02T21:43:55.299Z,0.30
2023-04-02T21:46:25.052Z,0.27
2023-04-02T21:48:54.147Z,0.32
2023-04-02T21:51:25.313Z,0.26
2023-04-02T21:53:54.175Z,0.21
2023-04-02T21:56:23.895Z,0.13
2023-04-02T21:58:52.302Z,0.15
2023-04-02T22:01:27.230Z,0.17
2023-04-02T22:03:56.891Z,0.12
2023-04-02T22:06:27.912Z,0.07
2023-04-02T22:08:58.420Z,0.08
2023-04-02T22:11:28.065Z,0.02
2023-04-02T22:13:56.135Z,0.00
2023-04-02T22:16:25.298Z,-0.04
2023-04-02T22:18:54.548Z,-0.06
2023-04-02T22:21:22.838Z,-0.01
2023-04-02T22:23:52.561Z,0.02
2023-04-02T22:26:22.903Z,-0.04
2023-04-02T22:28:52.633Z,0.12
2023-04-02T22:31:21.848Z,0.03
2023-04-02T22:33:50.585Z,0.12
2023-04-02T22:36:19.824Z,0.13
2023-04-02T22:38:47.667Z,0.13
2023-04-02T22:41:18.298Z,0.14
2023-04-02T22:43:47.196Z,0.08
2023-04-02T22:46:16.578Z,0.21
2023-04-02T22:48:45.114Z,0.22
2023-04-02T22:51:14.862Z,0.12
2023-04-02T22:53:43.148Z,-0.01
2023-04-02T22:56:12.659Z,-0.10
2023-04-02T22:58:42.170Z,-0.08
2023-04-02T23:01:13.259Z,-0.05
2023-04-02T23:03:41.573Z,-0.12
2023-04-02T23:06:11.040Z,-0.16
2023-04-02T23:08:39.899Z,-0.21
2023-04-02T23:11:09.346Z,-0.13
2023-04-02T23:13:37.542Z,-0.12
2023-04-02T23:16:08.689Z,-0.12
2023-04-02T23:18:37.053Z,-0.04
2023-04-02T23:21:06.030Z,0.04
2023-04-02T23:23:34.229Z,0.06
2023-04-02T23:26:07.198Z,-0.08
2023-04-02T23:28:35.384Z,-0.14
2023-04-02T23:31:03.808Z,-0.08
2023-04-02T23:33:33.157Z,-0.11
2023-04-02T23:36:01.135Z,-0.19
2023-04-02T23:38:29.032Z,-0.20
2023-04-02T23:40:56.954Z,-0.25
2023-04-02T23:43:24.930Z,-0.31
2023-04-02T23:45:52.822Z,-0.31
2023-04-02T23:48:20.694Z,-0.40
2023-04-02T23:50:49.898Z,-0.39
2023-04-02T23:53:18.734Z,-0.47
2023-04-02T23:55:46.867Z,-0.53
2023-04-02T23:58:14.763Z,-0.56
